Time;durP1;ratioP1;P1;durP2;ratioP2;P2;SDS_P1;SDS_P2;PMS_P1;PMS_P2;Temp;Humidity;BMP_temperature;BMP_pressure;BME280_temperature;BME280_humidity;BME280_pressure;Samples;Min_cycle;Max_cycle;Signal;HPM_P1;HPM_P2
2022/05/13 00:00:39;;;;;;;7.22;3.28;;;;;;;;;;5139326;27;20018;-44
2022/05/13 00:03:05;;;;;;;6.90;4.32;;;;;;;;;;5138803;27;20677;-45
2022/05/13 00:05:30;;;;;;;7.78;5.03;;;;;;;;;;5137221;27;20019;-45
2022/05/13 00:07:55;;;;;;;10.23;6.05;;;;;;;;;;5140328;27;20029;-41
2022/05/13 00:10:22;;;;;;;8.98;3.45;;;;;;;;;;5137843;27;20115;-43
2022/05/13 00:12:47;;;;;;;20.17;3.95;;;;;;;;;;5141132;27;20026;-44
2022/05/13 00:15:18;;;;;;;5.95;4.32;;;;;;;;;;5140830;27;20031;-41
2022/05/13 00:17:43;;;;;;;8.00;4.37;;;;;;;;;;5142339;27;20015;-44
2022/05/13 00:20:11;;;;;;;7.03;3.20;;;;;;;;;;5140272;27;20025;-43
2022/05/13 00:22:42;;;;;;;6.03;4.18;;;;;;;;;;5140310;27;20047;-44
2022/05/13 00:25:07;;;;;;;;;;;;;;;;;;5140473;27;20043;-45
2022/05/13 00:27:32;;;;;;;7.47;4.60;;;;;;;;;;5136446;27;19957;-43
2022/05/13 00:29:58;;;;;;;7.35;3.90;;;;;;;;;;5139348;27;20527;-44
2022/05/13 00:32:23;;;;;;;4.47;4.07;;;;;;;;;;5140565;27;20011;-45
2022/05/13 00:34:49;;;;;;;12.95;4.13;;;;;;;;;;5137650;27;20034;-43
2022/05/13 00:37:14;;;;;;;9.55;3.88;;;;;;;;;;5137586;27;20106;-43
2022/05/13 00:39:39;;;;;;;8.85;4.78;;;;;;;;;;5113390;28;20050;-43
2022/05/13 00:42:19;;;;;;;5.88;4.40;;;;;;;;;;5116284;28;20751;-44
2022/05/13 00:44:45;;;;;;;5.50;4.32;;;;;;;;;;5115519;27;20083;-45
2022/05/13 00:47:11;;;;;;;11.30;4.53;;;;;;;;;;5116878;28;20437;-45
2022/05/13 00:49:38;;;;;;;5.15;3.63;;;;;;;;;;5117074;28;20472;-45
2022/05/13 00:52:04;;;;;;;12.50;4.20;;;;;;;;;;5119258;28;20490;-45
2022/05/13 00:54:30;;;;;;;7.80;4.13;;;;;;;;;;5116817;28;20019;-42
2022/05/13 00:56:56;;;;;;;3.95;3.30;;;;;;;;;;5118259;27;20018;-41
2022/05/13 00:59:22;;;;;;;10.43;4.57;;;;;;;;;;5119602;28;20078;-44
2022/05/13 01:01:48;;;;;;;6.97;3.85;;;;;;;;;;5120039;28;20023;-41
2022/05/13 01:04:15;;;;;;;4.75;3.95;;;;;;;;;;5114065;28;20019;-42
2022/05/13 01:06:43;;;;;;;6.68;2.95;;;;;;;;;;5113509;28;20025;-41
2022/05/13 01:09:08;;;;;;;3.42;2.33;;;;;;;;;;5116803;28;20098;-40
2022/05/13 01:11:35;;;;;;;11.90;4.72;;;;;;;;;;5119466;28;20468;-42
2022/05/13 01:14:09;;;;;;;8.52;4.05;;;;;;;;;;5117129;28;20019;-39
2022/05/13 01:18:05;;;;;;;6.53;5.00;;;;;;;;;;5118944;27;20119;-41
2022/05/13 01:19:20;;;;;;;11.25;3.70;;;;;;;;;;5116263;28;20515;-41
2022/05/13 01:21:47;;;;;;;6.25;4.30;;;;;;;;;;5118195;28;20024;-42
2022/05/13 01:24:12;;;;;;;6.55;3.72;;;;;;;;;;5116220;28;20075;-42
2022/05/13 01:26:39;;;;;;;6.72;4.25;;;;;;;;;;5115270;28;20372;-46
2022/05/13 01:29:04;;;;;;;16.42;3.15;;;;;;;;;;5116697;28;20062;-45
2022/05/13 01:31:30;;;;;;;6.28;4.25;;;;;;;;;;5117909;27;20035;-43
2022/05/13 01:33:57;;;;;;;7.75;4.63;;;;;;;;;;5118689;28;20027;-43
2022/05/13 01:36:22;;;;;;;7.35;4.00;;;;;;;;;;5120719;28;20503;-40
2022/05/13 01:38:48;;;;;;;15.23;3.65;;;;;;;;;;5118096;27;20059;-46
2022/05/13 01:41:14;;;;;;;5.75;2.85;;;;;;;;;;5140064;27;20023;-45
2022/05/13 01:43:40;;;;;;;12.93;4.03;;;;;;;;;;5137907;27;20443;-41
2022/05/13 01:46:05;;;;;;;14.57;5.15;;;;;;;;;;5140696;27;20110;-45
2022/05/13 01:48:30;;;;;;;4.97;3.58;;;;;;;;;;5140228;27;20118;-42
2022/05/13 01:50:56;;;;;;;15.45;3.97;;;;;;;;;;5140302;27;20457;-42
2022/05/13 01:53:21;;;;;;;9.30;3.80;;;;;;;;;;5142541;27;20417;-46
2022/05/13 01:55:47;;;;;;;9.40;3.58;;;;;;;;;;5144345;27;20018;-42
2022/05/13 01:58:13;;;;;;;6.07;4.15;;;;;;;;;;5141534;27;20480;-42
2022/05/13 02:00:39;;;;;;;6.18;4.43;;;;;;;;;;5144702;27;20015;-43
2022/05/13 02:05:49;;;;;;;15.02;3.90;;;;;;;;;;5141393;27;20469;-47
2022/05/13 02:08:15;;;;;;;10.48;5.95;;;;;;;;;;5139622;27;20019;-42
2022/05/13 02:10:41;;;;;;;9.77;5.25;;;;;;;;;;5142236;27;20021;-42
2022/05/13 02:13:06;;;;;;;4.88;3.13;;;;;;;;;;5142027;27;20015;-42
2022/05/13 02:15:32;;;;;;;7.35;3.50;;;;;;;;;;5139191;27;20019;-46
2022/05/13 02:17:57;;;;;;;4.13;2.97;;;;;;;;;;5139619;27;20015;-41
2022/05/13 02:20:22;;;;;;;5.18;3.80;;;;;;;;;;5142438;27;20521;-43
2022/05/13 02:22:47;;;;;;;5.93;2.95;;;;;;;;;;5139399;27;20015;-44
2022/05/13 02:25:13;;;;;;;4.70;3.40;;;;;;;;;;5139822;27;20018;-43
2022/05/13 02:27:38;;;;;;;6.20;4.47;;;;;;;;;;5139410;27;20020;-43
2022/05/13 02:30:04;;;;;;;5.88;3.38;;;;;;;;;;5143504;27;20383;-39
2022/05/13 02:32:29;;;;;;;7.10;4.20;;;;;;;;;;5140526;27;20162;-40
2022/05/13 02:34:55;;;;;;;5.22;3.35;;;;;;;;;;5139594;27;20082;-43
2022/05/13 02:37:20;;;;;;;7.50;3.72;;;;;;;;;;5142169;27;20090;-43
2022/05/13 02:39:45;;;;;;;6.40;3.35;;;;;;;;;;5140546;27;20054;-42
2022/05/13 02:42:10;;;;;;;21.05;4.63;;;;;;;;;;5142485;27;20022;-42
2022/05/13 02:44:36;;;;;;;8.05;4.38;;;;;;;;;;5140966;27;20566;-43
2022/05/13 02:47:01;;;;;;;10.30;3.42;;;;;;;;;;5141132;27;20022;-43
2022/05/13 02:49:26;;;;;;;4.97;3.90;;;;;;;;;;5140130;27;20071;-45
2022/05/13 02:51:51;;;;;;;9.25;4.45;;;;;;;;;;5143860;27;20034;-39
2022/05/13 02:54:17;;;;;;;6.07;4.78;;;;;;;;;;5139588;27;20015;-45
2022/05/13 02:56:43;;;;;;;9.90;3.83;;;;;;;;;;5140042;27;20414;-43
2022/05/13 02:59:08;;;;;;;9.50;4.28;;;;;;;;;;5139442;27;20046;-41
2022/05/13 03:01:34;;;;;;;13.77;3.40;;;;;;;;;;5139251;27;20019;-42
2022/05/13 03:03:59;;;;;;;7.45;4.10;;;;;;;;;;5139498;27;20162;-42
2022/05/13 03:06:25;;;;;;;12.23;4.20;;;;;;;;;;5137460;27;20025;-43
2022/05/13 03:08:51;;;;;;;4.68;3.70;;;;;;;;;;5141779;27;20082;-40
2022/05/13 03:11:17;;;;;;;3.88;3.13;;;;;;;;;;5141963;27;20018;-45
2022/05/13 03:13:42;;;;;;;6.43;3.15;;;;;;;;;;5138663;27;20077;-44
2022/05/13 03:16:09;;;;;;;4.60;3.15;;;;;;;;;;5139549;27;20025;-41
2022/05/13 03:18:34;;;;;;;14.50;4.03;;;;;;;;;;5136134;27;20479;-46
2022/05/13 03:20:59;;;;;;;6.78;4.30;;;;;;;;;;5140201;27;20034;-45
2022/05/13 03:23:24;;;;;;;5.03;2.92;;;;;;;;;;5143891;27;20054;-44
2022/05/13 03:25:50;;;;;;;6.10;3.63;;;;;;;;;;5142564;27;20045;-43
2022/05/13 03:28:15;;;;;;;5.03;3.45;;;;;;;;;;5142065;27;20435;-46
2022/05/13 03:30:40;;;;;;;8.20;4.22;;;;;;;;;;5136794;27;20497;-44
2022/05/13 03:33:06;;;;;;;4.93;3.28;;;;;;;;;;5140394;27;20122;-42
2022/05/13 03:35:31;;;;;;;9.13;3.03;;;;;;;;;;5136979;27;20015;-42
2022/05/13 03:37:57;;;;;;;6.40;3.97;;;;;;;;;;5138901;27;20031;-46
2022/05/13 03:40:23;;;;;;;4.35;3.03;;;;;;;;;;5140166;27;20051;-42
2022/05/13 03:42:48;;;;;;;5.78;3.65;;;;;;;;;;5141731;27;20029;-46
2022/05/13 03:45:14;;;;;;;6.28;4.22;;;;;;;;;;5141289;27;20084;-42
2022/05/13 03:47:40;;;;;;;9.38;3.20;;;;;;;;;;5140202;27;20030;-40
2022/05/13 03:50:06;;;;;;;8.32;3.97;;;;;;;;;;5139616;27;20039;-46
2022/05/13 03:52:31;;;;;;;13.32;5.03;;;;;;;;;;5138246;27;20017;-45
2022/05/13 03:54:57;;;;;;;15.27;4.10;;;;;;;;;;5140420;27;20023;-42
2022/05/13 03:57:22;;;;;;;5.40;4.00;;;;;;;;;;5140602;27;20034;-40
2022/05/13 03:59:47;;;;;;;6.20;3.78;;;;;;;;;;5137498;27;20374;-44
2022/05/13 04:02:13;;;;;;;4.32;2.90;;;;;;;;;;5137427;27;20031;-45
2022/05/13 04:10:07;;;;;;;16.17;3.58;;;;;;;;;;5139462;27;20079;-44
2022/05/13 04:18:00;;;;;;;4.75;3.28;;;;;;;;;;5140400;27;20028;-42
2022/05/13 04:20:25;;;;;;;5.45;3.42;;;;;;;;;;5139999;27;20023;-42
2022/05/13 04:22:51;;;;;;;8.10;3.25;;;;;;;;;;5142852;27;20071;-42
2022/05/13 04:25:17;;;;;;;5.15;3.65;;;;;;;;;;5140358;27;20359;-40
2022/05/13 04:27:43;;;;;;;6.35;4.57;;;;;;;;;;5138750;27;20170;-43
2022/05/13 04:30:08;;;;;;;16.02;4.28;;;;;;;;;;5137476;27;20506;-44
2022/05/13 04:32:34;;;;;;;10.00;4.20;;;;;;;;;;5137120;27;20010;-43
2022/05/13 04:34:59;;;;;;;9.07;3.95;;;;;;;;;;5137857;27;20027;-46
2022/05/13 04:37:25;;;;;;;5.30;3.80;;;;;;;;;;5139583;27;20033;-44
2022/05/13 04:39:53;;;;;;;17.00;4.25;;;;;;;;;;5139263;27;20061;-41
2022/05/13 04:45:03;;;;;;;9.88;5.25;;;;;;;;;;5142230;27;20034;-44
2022/05/13 04:50:12;;;;;;;6.82;3.85;;;;;;;;;;5138433;27;20029;-41
2022/05/13 04:52:37;;;;;;;10.55;5.22;;;;;;;;;;5139232;27;20962;-46
2022/05/13 04:55:03;;;;;;;8.90;3.92;;;;;;;;;;5137150;27;20023;-43
2022/05/13 04:57:29;;;;;;;10.27;3.55;;;;;;;;;;5139839;27;20083;-46
2022/05/13 04:59:54;;;;;;;5.85;3.05;;;;;;;;;;5136986;27;20545;-46
2022/05/13 05:02:19;;;;;;;7.97;3.85;;;;;;;;;;5136792;27;20015;-48
2022/05/13 05:04:45;;;;;;;11.95;4.47;;;;;;;;;;5140277;27;20261;-41
2022/05/13 05:07:10;;;;;;;5.47;3.45;;;;;;;;;;5137992;27;20366;-46
2022/05/13 05:09:36;;;;;;;6.88;4.80;;;;;;;;;;5140108;27;20459;-44
2022/05/13 05:12:01;;;;;;;15.85;4.18;;;;;;;;;;5139837;27;20019;-46
2022/05/13 05:14:27;;;;;;;13.07;6.03;;;;;;;;;;5140391;27;20053;-46
2022/05/13 05:16:53;;;;;;;5.50;4.03;;;;;;;;;;5143926;27;20018;-46
2022/05/13 05:19:18;;;;;;;7.82;5.47;;;;;;;;;;5142053;27;20027;-41
2022/05/13 05:21:44;;;;;;;6.72;4.10;;;;;;;;;;5140102;27;20033;-43
2022/05/13 05:24:10;;;;;;;15.65;4.68;;;;;;;;;;5144077;27;20141;-47
2022/05/13 05:26:36;;;;;;;11.10;4.20;;;;;;;;;;5120709;27;20470;-46
2022/05/13 05:29:01;;;;;;;4.38;3.03;;;;;;;;;;5141469;27;20114;-42
2022/05/13 05:31:26;;;;;;;7.00;4.70;;;;;;;;;;5127259;27;20497;-45
2022/05/13 05:33:52;;;;;;;6.95;4.55;;;;;;;;;;5144036;27;20458;-41
2022/05/13 05:36:17;;;;;;;9.30;4.45;;;;;;;;;;5139821;27;20023;-43
2022/05/13 05:38:42;;;;;;;13.27;4.30;;;;;;;;;;5141599;27;20503;-47
2022/05/13 05:41:08;;;;;;;6.47;3.67;;;;;;;;;;5142380;27;20015;-46
2022/05/13 05:43:35;;;;;;;13.52;6.10;;;;;;;;;;5142071;27;20031;-44
2022/05/13 05:46:01;;;;;;;19.80;6.57;;;;;;;;;;5142567;27;20031;-44
2022/05/13 05:48:26;;;;;;;31.33;7.35;;;;;;;;;;5139903;27;20525;-46
2022/05/13 05:50:53;;;;;;;14.48;6.43;;;;;;;;;;5139723;27;20015;-45
2022/05/13 05:57:13;;;;;;;13.13;7.22;;;;;;;;;;5141825;27;20023;-44
2022/05/13 05:58:47;;;;;;;20.98;6.97;;;;;;;;;;5139982;27;20029;-43
2022/05/13 06:01:13;;;;;;;5.60;5.03;;;;;;;;;;5141741;27;20106;-44
2022/05/13 06:03:38;;;;;;;5.28;4.13;;;;;;;;;;5141925;27;20055;-47
2022/05/13 06:06:05;;;;;;;9.30;5.05;;;;;;;;;;5142808;27;20021;-44
2022/05/13 06:08:30;;;;;;;22.50;20.40;;;;;;;;;;5139881;27;20019;-44
2022/05/13 06:10:56;;;;;;;13.55;6.05;;;;;;;;;;5139481;27;20075;-46
2022/05/13 06:13:21;;;;;;;8.40;4.53;;;;;;;;;;5141636;27;20025;-42
2022/05/13 06:15:46;;;;;;;12.35;3.95;;;;;;;;;;5139700;27;20120;-41
2022/05/13 06:18:12;;;;;;;15.70;3.92;;;;;;;;;;5140324;27;20015;-44
2022/05/13 06:20:37;;;;;;;8.73;3.75;;;;;;;;;;5140032;27;20026;-42
2022/05/13 06:23:02;;;;;;;9.25;4.38;;;;;;;;;;5138527;27;20106;-67
2022/05/13 06:25:28;;;;;;;8.25;4.70;;;;;;;;;;5137706;27;20106;-67
2022/05/13 06:27:53;;;;;;;5.65;4.75;;;;;;;;;;5140750;27;20019;-66
2022/05/13 06:30:21;;;;;;;6.40;5.55;;;;;;;;;;5138580;27;20496;-66
2022/05/13 06:32:46;;;;;;;20.33;6.43;;;;;;;;;;5139796;27;20069;-67
2022/05/13 06:35:11;;;;;;;13.93;6.93;;;;;;;;;;5140860;27;20514;-67
2022/05/13 06:37:37;;;;;;;11.15;4.68;;;;;;;;;;5143027;27;20102;-66
2022/05/13 06:40:02;;;;;;;16.63;6.57;;;;;;;;;;5140398;27;20047;-67
2022/05/13 06:42:28;;;;;;;16.55;7.07;;;;;;;;;;5142640;27;20530;-66
2022/05/13 06:44:53;;;;;;;15.73;9.13;;;;;;;;;;5138773;27;20448;-66
2022/05/13 06:47:18;;;;;;;12.10;8.32;;;;;;;;;;5140902;27;20027;-66
2022/05/13 06:49:44;;;;;;;12.68;8.57;;;;;;;;;;5142044;27;20018;-66
2022/05/13 06:52:13;;;;;;;15.75;7.68;;;;;;;;;;5139211;27;20055;-66
2022/05/13 06:54:39;;;;;;;20.52;9.57;;;;;;;;;;5140737;27;20055;-66
2022/05/13 06:57:04;;;;;;;10.20;8.52;;;;;;;;;;5142341;27;20055;-66
2022/05/13 06:59:29;;;;;;;39.28;9.07;;;;;;;;;;5139415;27;20030;-65
2022/05/13 07:01:55;;;;;;;20.60;11.05;;;;;;;;;;5141666;27;20023;-66
2022/05/13 07:04:20;;;;;;;9.35;6.85;;;;;;;;;;5136061;27;20047;-66
2022/05/13 07:06:45;;;;;;;15.18;8.05;;;;;;;;;;5141855;27;20018;-66
2022/05/13 07:09:10;;;;;;;27.35;13.13;;;;;;;;;;5141830;27;20711;-65
2022/05/13 07:11:36;;;;;;;17.15;11.25;;;;;;;;;;5142522;27;20014;-65
2022/05/13 07:14:01;;;;;;;16.65;10.50;;;;;;;;;;5141524;27;20033;-66
2022/05/13 07:16:27;;;;;;;14.38;9.95;;;;;;;;;;5139837;27;20090;-65
2022/05/13 07:18:52;;;;;;;12.23;10.27;;;;;;;;;;5139351;27;20102;-65
2022/05/13 07:21:17;;;;;;;14.23;10.85;;;;;;;;;;5139841;27;20094;-67
2022/05/13 07:23:43;;;;;;;14.02;12.00;;;;;;;;;;5139426;27;20534;-72
2022/05/13 07:26:09;;;;;;;15.40;11.48;;;;;;;;;;5139070;27;20031;-79
2022/05/13 07:28:35;;;;;;;17.17;10.27;;;;;;;;;;5139466;27;20107;-66
2022/05/13 07:31:01;;;;;;;30.60;13.23;;;;;;;;;;5138857;27;20014;-70
2022/05/13 07:33:28;;;;;;;15.80;13.77;;;;;;;;;;5141318;27;20102;-67
2022/05/13 07:35:54;;;;;;;31.80;28.45;;;;;;;;;;5135433;27;20050;-68
2022/05/13 07:38:19;;;;;;;51.90;44.22;;;;;;;;;;5137155;27;20058;-74
2022/05/13 07:43:28;;;;;;;20.70;9.93;;;;;;;;;;5140206;27;20026;-67
2022/05/13 07:45:54;;;;;;;13.25;8.82;;;;;;;;;;5139915;27;20022;-67
2022/05/13 07:48:19;;;;;;;25.33;11.15;;;;;;;;;;5137423;27;20026;-70
2022/05/13 07:50:44;;;;;;;19.92;12.18;;;;;;;;;;5140875;27;20415;-70
2022/05/13 07:53:10;;;;;;;17.38;14.15;;;;;;;;;;5141142;27;20027;-70
2022/05/13 07:55:35;;;;;;;16.23;14.57;;;;;;;;;;5140896;27;20697;-71
2022/05/13 07:58:01;;;;;;;11.52;10.02;;;;;;;;;;5135828;27;20105;-70
2022/05/13 08:00:26;;;;;;;12.75;6.82;;;;;;;;;;5142144;27;20026;-71
2022/05/13 08:03:18;;;;;;;16.13;6.38;;;;;;;;;;5139730;27;20030;-69
2022/05/13 08:05:46;;;;;;;10.07;4.93;;;;;;;;;;5140063;27;20479;-69
2022/05/13 08:08:13;;;;;;;7.00;5.10;;;;;;;;;;5140092;27;20019;-68
2022/05/13 08:10:39;;;;;;;14.73;4.50;;;;;;;;;;5140571;27;20011;-69
2022/05/13 08:13:06;;;;;;;7.68;3.53;;;;;;;;;;5139268;27;20053;-69
2022/05/13 08:15:31;;;;;;;6.68;3.50;;;;;;;;;;5139835;27;20022;-65
2022/05/13 08:17:57;;;;;;;8.02;3.08;;;;;;;;;;5136633;27;20022;-65
2022/05/13 08:20:22;;;;;;;7.03;3.50;;;;;;;;;;5141982;27;20506;-66
2022/05/13 08:22:48;;;;;;;14.20;3.53;;;;;;;;;;5140929;27;20167;-65
2022/05/13 08:25:13;;;;;;;13.18;3.63;;;;;;;;;;5139205;27;20464;-66
2022/05/13 08:27:39;;;;;;;6.50;3.20;;;;;;;;;;5139475;27;20464;-66
2022/05/13 08:30:05;;;;;;;4.55;2.92;;;;;;;;;;5140169;27;20022;-65
2022/05/13 08:32:30;;;;;;;9.27;5.07;;;;;;;;;;5137423;27;20098;-66
2022/05/13 08:34:56;;;;;;;3.75;2.67;;;;;;;;;;5141965;27;20098;-66
2022/05/13 08:37:21;;;;;;;5.60;3.08;;;;;;;;;;5139105;27;20015;-66
2022/05/13 08:39:46;;;;;;;5.53;3.47;;;;;;;;;;5138592;27;20047;-66
2022/05/13 08:42:22;;;;;;;5.53;3.45;;;;;;;;;;5136418;27;20543;-65
2022/05/13 08:44:49;;;;;;;9.13;4.65;;;;;;;;;;5137830;27;20024;-65
2022/05/13 08:47:22;;;;;;;18.00;3.47;;;;;;;;;;5137225;27;20471;-65
2022/05/13 08:49:51;;;;;;;10.18;3.35;;;;;;;;;;5142462;27;20114;-65
2022/05/13 08:55:36;;;;;;;6.13;3.17;;;;;;;;;;5066953;28;20150;-70
2022/05/13 08:58:04;;;;;;;9.20;3.83;;;;;;;;;;5065138;28;20520;-70
2022/05/13 09:00:35;;;;;;;8.57;3.20;;;;;;;;;;5102676;27;20034;-69
2022/05/13 09:03:20;;;;;;;12.57;3.30;;;;;;;;;;5145263;27;20027;-69
2022/05/13 09:05:51;;;;;;;10.27;3.63;;;;;;;;;;5125896;27;20039;-69
2022/05/13 09:08:16;;;;;;;10.65;5.03;;;;;;;;;;5142619;27;20495;-69
2022/05/13 09:11:02;;;;;;;8.40;4.13;;;;;;;;;;5146883;27;20023;-69
2022/05/13 09:13:27;;;;;;;6.18;2.03;;;;;;;;;;5143384;27;20047;-69
2022/05/13 09:15:55;;;;;;;6.53;3.15;;;;;;;;;;5143331;27;20135;-68
2022/05/13 09:18:23;;;;;;;6.57;2.90;;;;;;;;;;5142136;27;20038;-68
2022/05/13 09:20:51;;;;;;;8.50;2.50;;;;;;;;;;5146231;27;20061;-68
2022/05/13 09:23:17;;;;;;;7.22;3.55;;;;;;;;;;5145478;27;20095;-69
2022/05/13 09:26:15;;;;;;;9.07;2.67;;;;;;;;;;5143640;27;20095;-68
2022/05/13 09:29:00;;;;;;;13.63;2.55;;;;;;;;;;5124880;27;20027;-68
2022/05/13 09:31:30;;;;;;;12.77;2.55;;;;;;;;;;5139669;27;20030;-68
2022/05/13 09:33:55;;;;;;;8.45;4.55;;;;;;;;;;5144395;27;20049;-69
2022/05/13 09:36:23;;;;;;;11.43;3.92;;;;;;;;;;5140935;27;20046;-64
2022/05/13 09:38:50;;;;;;;7.78;3.03;;;;;;;;;;5142236;27;20022;-63
2022/05/13 09:41:26;;;;;;;18.20;3.03;;;;;;;;;;5138632;27;20057;-63
2022/05/13 09:43:53;;;;;;;9.05;3.50;;;;;;;;;;5143895;27;20079;-64
2022/05/13 09:46:33;;;;;;;6.35;4.50;;;;;;;;;;5144105;27;20022;-68
2022/05/13 09:49:04;;;;;;;3.55;2.22;;;;;;;;;;5141454;27;20019;-64
2022/05/13 09:51:32;;;;;;;7.38;3.55;;;;;;;;;;5144344;27;20015;-62
2022/05/13 09:54:12;;;;;;;7.85;2.05;;;;;;;;;;5140947;27;20026;-65
2022/05/13 09:56:45;;;;;;;5.07;3.35;;;;;;;;;;5143776;27;20017;-70
2022/05/13 09:59:14;;;;;;;6.55;2.75;;;;;;;;;;5142106;27;20067;-64
2022/05/13 10:01:39;;;;;;;7.05;3.35;;;;;;;;;;5138628;27;20055;-64
2022/05/13 10:04:09;;;;;;;2.63;2.08;;;;;;;;;;5144080;27;20497;-64
2022/05/13 10:06:35;;;;;;;1.92;1.35;;;;;;;;;;5139742;27;20027;-63
2022/05/13 10:14:32;;;;;;;18.17;5.53;;;;;;;;;;5139142;27;20069;-65
2022/05/13 10:17:06;;;;;;;5.53;4.20;;;;;;;;;;5142361;27;20034;-65
2022/05/13 10:19:41;;;;;;;11.65;4.00;;;;;;;;;;5141547;27;20038;-65
2022/05/13 10:22:13;;;;;;;2.17;1.60;;;;;;;;;;5142552;27;20027;-66
2022/05/13 10:24:41;;;;;;;4.78;2.78;;;;;;;;;;5144401;27;20015;-65
2022/05/13 10:27:09;;;;;;;2.13;1.38;;;;;;;;;;5142162;27;20193;-65
2022/05/13 10:29:40;;;;;;;6.65;3.70;;;;;;;;;;5138562;27;20018;-66
2022/05/13 10:32:09;;;;;;;8.38;2.53;;;;;;;;;;5143365;27;20025;-65
2022/05/13 10:34:47;;;;;;;5.72;2.50;;;;;;;;;;5143277;27;20011;-65
2022/05/13 10:37:16;;;;;;;9.55;4.40;;;;;;;;;;5142624;27;20487;-66
2022/05/13 10:39:46;;;;;;;5.55;2.88;;;;;;;;;;5143410;27;20106;-65
2022/05/13 10:42:22;;;;;;;5.97;3.47;;;;;;;;;;5141556;27;20023;-65
2022/05/13 10:44:50;;;;;;;15.45;4.30;;;;;;;;;;5143261;27;20022;-66
2022/05/13 10:47:16;;;;;;;3.45;2.47;;;;;;;;;;5139461;27;20027;-65
2022/05/13 10:49:43;;;;;;;6.00;4.47;;;;;;;;;;5144847;27;20027;-65
2022/05/13 10:52:08;;;;;;;7.00;5.18;;;;;;;;;;5143621;27;20067;-65
2022/05/13 10:54:48;;;;;;;8.30;3.63;;;;;;;;;;5138372;27;20555;-65
2022/05/13 10:57:23;;;;;;;6.32;3.08;;;;;;;;;;5140383;27;20086;-65
2022/05/13 11:00:11;;;;;;;4.13;2.45;;;;;;;;;;5141821;27;20019;-66
2022/05/13 11:02:36;;;;;;;4.85;3.08;;;;;;;;;;5139353;27;20064;-66
2022/05/13 11:05:07;;;;;;;6.30;2.72;;;;;;;;;;5143345;27;20496;-66
2022/05/13 11:07:41;;;;;;;7.43;1.85;;;;;;;;;;5144242;27;20122;-65
2022/05/13 11:10:17;;;;;;;6.25;2.92;;;;;;;;;;5139495;27;20023;-65
2022/05/13 11:12:43;;;;;;;4.93;3.05;;;;;;;;;;5140426;27;20030;-65
2022/05/13 11:15:16;;;;;;;3.47;2.47;;;;;;;;;;5142865;27;20019;-63
2022/05/13 11:17:47;;;;;;;18.55;3.33;;;;;;;;;;5140274;27;20027;-65
2022/05/13 11:20:27;;;;;;;6.35;3.00;;;;;;;;;;5141130;27;20064;-61
2022/05/13 11:22:55;;;;;;;4.77;2.80;;;;;;;;;;5142095;27;20026;-64
2022/05/13 11:28:34;;;;;;;2.83;1.88;;;;;;;;;;5140964;27;20383;-65
2022/05/13 11:30:59;;;;;;;8.27;3.17;;;;;;;;;;5139772;27;20019;-64
2022/05/13 11:33:40;;;;;;;3.42;1.88;;;;;;;;;;5142904;27;20014;-64
2022/05/13 11:36:18;;;;;;;17.08;3.45;;;;;;;;;;5136924;27;20491;-64
2022/05/13 11:39:02;;;;;;;7.05;3.63;;;;;;;;;;5136809;27;20019;-65
2022/05/13 11:41:33;;;;;;;3.30;2.83;;;;;;;;;;5139988;27;20035;-65
2022/05/13 11:43:59;;;;;;;3.65;1.95;;;;;;;;;;5141633;27;20019;-65
2022/05/13 11:46:33;;;;;;;5.22;3.03;;;;;;;;;;5142010;27;20015;-64
2022/05/13 11:49:06;;;;;;;8.23;3.15;;;;;;;;;;5142414;27;20015;-65
2022/05/13 11:51:34;;;;;;;26.83;4.13;;;;;;;;;;5141170;27;20010;-68
2022/05/13 11:53:59;;;;;;;7.03;2.40;;;;;;;;;;5140773;27;20245;-66
2022/05/13 11:56:25;;;;;;;4.20;2.33;;;;;;;;;;5141947;27;20494;-66
2022/05/13 11:59:13;;;;;;;5.07;2.85;;;;;;;;;;5138759;27;20042;-66
2022/05/13 12:01:45;;;;;;;6.60;2.47;;;;;;;;;;5136333;27;20018;-64
2022/05/13 12:04:13;;;;;;;7.47;3.40;;;;;;;;;;5142277;27;20050;-64
2022/05/13 12:06:51;;;;;;;3.95;2.22;;;;;;;;;;5138781;27;20019;-64
2022/05/13 12:09:16;;;;;;;2.83;1.15;;;;;;;;;;5137603;27;20026;-64
2022/05/13 12:11:42;;;;;;;5.38;3.35;;;;;;;;;;5138115;27;20377;-65
2022/05/13 12:14:23;;;;;;;6.63;3.63;;;;;;;;;;5139031;27;20106;-65
2022/05/13 12:17:03;;;;;;;6.65;3.15;;;;;;;;;;5138854;27;20022;-66
2022/05/13 12:19:41;;;;;;;4.80;2.67;;;;;;;;;;5140694;27;20018;-65
2022/05/13 12:22:19;;;;;;;8.60;2.65;;;;;;;;;;5139432;27;20062;-65
2022/05/13 12:24:53;;;;;;;4.63;1.58;;;;;;;;;;5137100;27;20015;-66
2022/05/13 12:27:27;;;;;;;3.90;2.85;;;;;;;;;;5138665;27;20018;-65
2022/05/13 12:30:02;;;;;;;13.18;3.50;;;;;;;;;;5140526;27;20022;-66
2022/05/13 12:32:36;;;;;;;13.00;4.38;;;;;;;;;;5140361;27;20027;-66
2022/05/13 12:37:45;;;;;;;6.93;4.22;;;;;;;;;;5137374;27;20029;-66
2022/05/13 12:40:11;;;;;;;12.65;4.00;;;;;;;;;;5136850;27;20360;-66
2022/05/13 12:42:50;;;;;;;9.68;3.15;;;;;;;;;;5135801;27;20027;-66
2022/05/13 12:45:21;;;;;;;4.03;2.42;;;;;;;;;;5139595;27;20031;-66
2022/05/13 12:48:09;;;;;;;2.88;1.95;;;;;;;;;;5138678;27;20386;-66
2022/05/13 12:50:43;;;;;;;8.35;4.25;;;;;;;;;;5128947;27;20019;-66
2022/05/13 12:53:27;;;;;;;9.60;2.70;;;;;;;;;;5139607;27;20018;-67
2022/05/13 12:55:53;;;;;;;6.40;3.83;;;;;;;;;;5137300;27;20039;-65
2022/05/13 12:58:18;;;;;;;3.75;3.33;;;;;;;;;;5140853;27;20023;-66
2022/05/13 13:00:45;;;;;;;10.63;5.00;;;;;;;;;;5137348;27;20101;-66
2022/05/13 13:03:14;;;;;;;5.63;2.50;;;;;;;;;;5141337;27;20030;-67
2022/05/13 13:05:42;;;;;;;6.03;1.88;;;;;;;;;;5138519;27;20027;-66
2022/05/13 13:08:22;;;;;;;4.05;2.72;;;;;;;;;;5138195;27;20502;-66
2022/05/13 13:11:06;;;;;;;7.43;4.60;;;;;;;;;;5141750;27;20026;-66
2022/05/13 13:13:34;;;;;;;13.48;5.57;;;;;;;;;;5136910;27;20019;-66
2022/05/13 13:16:00;;;;;;;9.30;2.65;;;;;;;;;;5139675;27;20023;-67
2022/05/13 13:18:30;;;;;;;5.18;3.45;;;;;;;;;;5136971;27;20027;-66
2022/05/13 13:21:00;;;;;;;5.35;2.35;;;;;;;;;;5138930;27;20501;-67
2022/05/13 13:23:29;;;;;;;13.57;3.95;;;;;;;;;;5136962;27;20026;-66
2022/05/13 13:25:57;;;;;;;6.32;3.78;;;;;;;;;;5137407;27;20477;-66
2022/05/13 13:28:29;;;;;;;5.90;2.20;;;;;;;;;;5137630;27;20034;-66
2022/05/13 13:30:57;;;;;;;9.50;3.90;;;;;;;;;;5136530;27;20523;-66
2022/05/13 13:33:45;;;;;;;11.85;3.33;;;;;;;;;;5137104;27;20025;-66
2022/05/13 13:36:13;;;;;;;4.35;2.75;;;;;;;;;;5133037;27;20156;-68
2022/05/13 13:38:39;;;;;;;10.68;3.30;;;;;;;;;;5143117;27;20011;-66
2022/05/13 13:41:05;;;;;;;10.20;3.88;;;;;;;;;;5104112;27;20080;-66
2022/05/13 13:43:32;;;;;;;4.57;3.17;;;;;;;;;;5121162;27;20050;-66
2022/05/13 13:46:09;;;;;;;12.65;4.60;;;;;;;;;;5106983;27;20038;-67
2022/05/13 13:48:40;;;;;;;6.63;2.78;;;;;;;;;;5099310;27;20016;-66
2022/05/13 13:51:05;;;;;;;;;;;;;;;;;;5107074;27;20020;-66
2022/05/13 13:53:32;;;;;;;6.37;3.27;;;;;;;;;;5105692;27;19953;-67
2022/05/13 13:56:04;;;;;;;6.03;4.03;;;;;;;;;;5105269;27;20430;-66
2022/05/13 13:58:35;;;;;;;5.25;3.70;;;;;;;;;;5105104;27;20020;-66
2022/05/13 14:01:14;;;;;;;8.20;2.70;;;;;;;;;;5104366;27;20027;-66
2022/05/13 14:03:39;;;;;;;9.65;4.00;;;;;;;;;;5104456;27;20032;-66
2022/05/13 14:06:06;;;;;;;6.32;3.28;;;;;;;;;;5110853;27;20031;-67
2022/05/13 14:08:36;;;;;;;7.68;3.08;;;;;;;;;;5103663;27;20142;-66
2022/05/13 14:11:06;;;;;;;5.63;4.55;;;;;;;;;;5109270;27;20075;-66
2022/05/13 14:13:37;;;;;;;7.03;3.42;;;;;;;;;;5101630;27;20020;-67
2022/05/13 14:16:13;;;;;;;14.52;2.75;;;;;;;;;;5105295;27;20030;-66
2022/05/13 14:18:39;;;;;;;7.60;2.72;;;;;;;;;;5100574;27;20028;-68
2022/05/13 14:21:23;;;;;;;10.90;3.58;;;;;;;;;;5100659;27;20127;-67
2022/05/13 14:24:17;;;;;;;7.22;3.03;;;;;;;;;;5103245;27;20027;-67
2022/05/13 14:26:48;;;;;;;4.75;2.50;;;;;;;;;;5089846;27;20040;-67
2022/05/13 14:29:14;;;;;;;7.13;2.88;;;;;;;;;;5102838;27;20024;-67
2022/05/13 14:31:42;;;;;;;6.93;2.65;;;;;;;;;;5102285;27;20388;-67
2022/05/13 14:34:15;;;;;;;6.05;2.25;;;;;;;;;;5100863;27;20456;-68
2022/05/13 14:36:44;;;;;;;10.73;5.18;;;;;;;;;;5104756;27;20096;-67
2022/05/13 14:42:00;;;;;;;4.68;2.30;;;;;;;;;;5138208;27;20026;-65
2022/05/13 14:44:34;;;;;;;7.47;2.40;;;;;;;;;;5143446;27;20201;-65
2022/05/13 14:47:01;;;;;;;20.40;3.83;;;;;;;;;;5138211;27;20483;-64
2022/05/13 14:49:30;;;;;;;10.85;3.90;;;;;;;;;;5139645;27;20027;-65
2022/05/13 14:51:57;;;;;;;2.38;1.80;;;;;;;;;;5141342;27;20431;-64
2022/05/13 14:54:24;;;;;;;11.80;5.75;;;;;;;;;;5137873;27;20499;-65
2022/05/13 14:56:50;;;;;;;7.40;2.90;;;;;;;;;;5138014;27;20129;-65
2022/05/13 14:59:21;;;;;;;10.88;4.28;;;;;;;;;;5139599;27;20023;-65
2022/05/13 15:01:46;;;;;;;3.10;1.80;;;;;;;;;;5140740;27;20027;-66
2022/05/13 15:04:25;;;;;;;7.60;1.80;;;;;;;;;;5141860;27;20590;-65
2022/05/13 15:06:50;;;;;;;8.63;3.08;;;;;;;;;;5140614;27;20045;-65
2022/05/13 15:09:21;;;;;;;8.25;3.40;;;;;;;;;;5137801;27;20479;-67
2022/05/13 15:11:49;;;;;;;9.63;2.88;;;;;;;;;;5143597;27;20030;-67
2022/05/13 15:14:14;;;;;;;10.13;4.35;;;;;;;;;;5139642;27;20019;-66
2022/05/13 15:16:40;;;;;;;9.68;3.20;;;;;;;;;;5142467;27;20027;-66
2022/05/13 15:19:06;;;;;;;12.57;4.50;;;;;;;;;;5141430;27;20023;-66
2022/05/13 15:21:31;;;;;;;6.22;4.32;;;;;;;;;;5139729;27;20102;-67
2022/05/13 15:23:57;;;;;;;7.47;4.03;;;;;;;;;;5138178;27;20402;-67
2022/05/13 15:26:25;;;;;;;6.13;3.90;;;;;;;;;;5141654;27;20051;-66